createdAt,value
2023-01-13T00:00:39.421Z,95316.09
2023-01-13T00:03:05.868Z,95297.44
2023-01-13T00:05:32.345Z,95299.59
2023-01-13T00:07:58.735Z,95287.00
2023-01-13T00:10:25.145Z,95297.88
2023-01-13T00:12:51.509Z,95293.44
2023-01-13T00:15:17.896Z,95298.53
2023-01-13T00:17:44.256Z,95288.44
2023-01-13T00:20:11.665Z,95285.41
2023-01-13T00:22:38.182Z,95294.03
2023-01-13T00:25:04.626Z,95278.13
2023-01-13T00:27:31.055Z,95284.25
2023-01-13T00:29:57.499Z,95283.34
2023-01-13T00:32:23.870Z,95282.34
2023-01-13T00:34:50.307Z,95273.63
2023-01-13T00:37:16.679Z,95261.91
2023-01-13T00:39:43.073Z,95263.25
2023-01-13T00:42:09.486Z,95262.44
2023-01-13T00:44:35.851Z,95247.56
2023-01-13T00:47:02.212Z,95248.75
2023-01-13T00:49:28.650Z,95247.81
2023-01-13T00:51:55.050Z,95248.25
2023-01-13T00:54:21.452Z,95243.50
2023-01-13T00:56:47.839Z,95241.22
2023-01-13T00:59:14.200Z,95244.09
2023-01-13T01:01:40.759Z,95234.63
2023-01-13T01:04:07.207Z,95243.03
2023-01-13T01:06:33.740Z,95234.53
2023-01-13T01:09:00.207Z,95232.41
2023-01-13T01:11:26.609Z,95228.78
2023-01-13T01:13:53.020Z,95232.56
2023-01-13T01:16:19.448Z,95239.16
2023-01-13T01:18:45.916Z,95230.56
2023-01-13T01:21:12.288Z,95242.50
2023-01-13T01:23:38.644Z,95245.53
2023-01-13T01:26:05.076Z,95240.22
2023-01-13T01:28:31.448Z,95240.97
2023-01-13T01:30:57.856Z,95239.34
2023-01-13T01:33:24.287Z,95243.69
2023-01-13T01:35:50.850Z,95249.81
2023-01-13T01:38:17.244Z,95254.31
2023-01-13T01:40:43.614Z,95255.81
2023-01-13T01:43:10.061Z,95247.53
2023-01-13T01:45:36.485Z,95253.09
2023-01-13T01:48:02.925Z,95254.91
2023-01-13T01:50:29.325Z,95257.94
2023-01-13T01:52:55.676Z,95265.97
2023-01-13T01:55:23.094Z,95257.72
2023-01-13T01:57:49.513Z,95247.22
2023-01-13T02:00:15.876Z,95253.22
2023-01-13T02:02:42.311Z,95249.63
2023-01-13T02:05:08.732Z,95251.66
2023-01-13T02:07:35.150Z,95249.38
2023-01-13T02:10:01.520Z,95225.53
2023-01-13T02:12:27.904Z,95222.91
2023-01-13T02:14:54.269Z,95213.50
2023-01-13T02:17:20.629Z,95209.78
2023-01-13T02:19:47.033Z,95213.25
2023-01-13T02:22:13.503Z,95229.38
2023-01-13T02:24:39.867Z,95217.81
2023-01-13T02:27:06.427Z,95217.66
2023-01-13T02:29:32.907Z,95212.94
2023-01-13T02:31:59.268Z,95194.44
2023-01-13T02:34:25.634Z,95208.00
2023-01-13T02:36:52.068Z,95192.63
2023-01-13T02:39:18.727Z,95206.22
2023-01-13T02:41:45.136Z,95189.75
2023-01-13T02:44:11.504Z,95194.06
2023-01-13T02:46:37.889Z,95194.41
2023-01-13T02:49:05.237Z,95189.72
2023-01-13T02:51:31.662Z,95183.84
2023-01-13T02:53:58.050Z,95190.50
2023-01-13T02:56:24.469Z,95182.56
2023-01-13T02:58:50.849Z,95185.06
2023-01-13T03:01:17.348Z,95187.19
2023-01-13T03:03:43.843Z,95184.72
2023-01-13T03:06:10.237Z,95178.69
2023-01-13T03:08:36.631Z,95175.09
2023-01-13T03:11:03.112Z,95176.50
2023-01-13T03:13:29.552Z,95181.13
2023-01-13T03:15:55.913Z,95182.38
2023-01-13T03:18:22.424Z,95178.88
2023-01-13T03:20:48.814Z,95178.78
2023-01-13T03:23:15.192Z,95177.94
2023-01-13T03:25:41.567Z,95185.84
2023-01-13T03:28:07.962Z,95181.16
2023-01-13T03:30:34.604Z,95187.00
2023-01-13T03:33:01.084Z,95189.22
2023-01-13T03:35:27.560Z,95190.56
2023-01-13T03:37:54.009Z,95178.06
2023-01-13T03:40:20.396Z,95179.75
2023-01-13T03:42:46.776Z,95184.59
2023-01-13T03:45:13.174Z,95193.31
2023-01-13T03:47:39.552Z,95184.19
2023-01-13T03:50:05.931Z,95183.22
2023-01-13T03:52:32.413Z,95187.22
2023-01-13T03:54:58.806Z,95194.53
2023-01-13T03:57:25.334Z,95190.50
2023-01-13T03:59:51.850Z,95198.69
2023-01-13T04:02:18.327Z,95208.31
2023-01-13T04:04:44.699Z,95195.16
2023-01-13T04:07:11.071Z,95203.81
2023-01-13T04:09:37.511Z,95196.34
2023-01-13T04:12:04.008Z,95209.88
2023-01-13T04:14:30.392Z,95211.53
2023-01-13T04:16:56.890Z,95217.63
2023-01-13T04:19:23.316Z,95208.41
2023-01-13T04:21:49.756Z,95218.34
2023-01-13T04:24:16.177Z,95229.00
2023-01-13T04:26:42.544Z,95216.16
2023-01-13T04:29:08.971Z,95224.09
2023-01-13T04:31:35.335Z,95233.81
2023-01-13T04:34:01.775Z,95233.16
2023-01-13T04:36:28.168Z,95240.66
2023-01-13T04:38:54.690Z,95227.91
2023-01-13T04:41:21.131Z,95254.06
2023-01-13T04:43:47.522Z,95238.34
2023-01-13T04:46:13.961Z,95240.28
2023-01-13T04:48:40.433Z,95237.28
2023-01-13T04:51:06.856Z,95230.81
2023-01-13T04:53:34.280Z,95238.25
2023-01-13T04:56:00.658Z,95254.19
2023-01-13T04:58:27.101Z,95247.31
2023-01-13T05:00:53.735Z,95245.31
2023-01-13T05:03:20.152Z,95244.28
2023-01-13T05:05:46.597Z,95250.47
2023-01-13T05:08:13.095Z,95242.44
2023-01-13T05:10:39.513Z,95242.38
2023-01-13T05:13:05.904Z,95231.13
2023-01-13T05:15:32.319Z,95278.84
2023-01-13T05:17:58.823Z,95249.75
2023-01-13T05:20:25.206Z,95231.66
2023-01-13T05:22:51.645Z,95243.25
2023-01-13T05:25:18.059Z,95254.81
2023-01-13T05:27:44.482Z,95275.19
2023-01-13T05:30:11.878Z,95250.50
2023-01-13T05:32:38.265Z,95256.59
2023-01-13T05:35:04.677Z,95245.84
2023-01-13T05:37:31.068Z,95273.03
2023-01-13T05:39:57.479Z,95236.72
2023-01-13T05:42:23.861Z,95244.94
2023-01-13T05:44:50.319Z,95251.69
2023-01-13T05:47:16.704Z,95265.22
2023-01-13T05:49:43.086Z,95249.50
2023-01-13T05:52:09.551Z,95241.66
2023-01-13T05:54:35.981Z,95246.31
2023-01-13T05:57:02.359Z,95240.13
2023-01-13T05:59:28.750Z,95236.56
2023-01-13T06:01:55.258Z,95232.78
2023-01-13T06:04:21.730Z,95235.53
2023-01-13T06:06:48.172Z,95233.69
2023-01-13T06:09:14.569Z,95234.63
2023-01-13T06:11:41.019Z,95234.03
2023-01-13T06:14:07.802Z,95226.50
2023-01-13T06:16:34.245Z,95222.34
2023-01-13T06:19:00.642Z,95222.97
2023-01-13T06:21:27.919Z,95229.63
2023-01-13T06:23:54.283Z,95209.16
2023-01-13T06:26:20.907Z,95210.34
2023-01-13T06:28:47.339Z,95218.91
2023-01-13T06:31:13.747Z,95226.50
2023-01-13T06:33:40.187Z,95228.97
2023-01-13T06:36:07.604Z,95223.81
2023-01-13T06:38:33.971Z,95223.88
2023-01-13T06:41:00.356Z,95218.81
2023-01-13T06:43:26.727Z,95231.75
2023-01-13T06:45:53.085Z,95235.81
2023-01-13T06:48:19.489Z,95233.34
2023-01-13T06:50:45.905Z,95250.34
2023-01-13T06:53:12.271Z,95254.66
2023-01-13T06:55:38.714Z,95254.31
2023-01-13T06:58:05.290Z,95248.41
2023-01-13T07:00:31.752Z,95261.91
2023-01-13T07:02:58.201Z,95268.00
2023-01-13T07:05:24.644Z,95274.69
2023-01-13T07:07:51.016Z,95262.25
2023-01-13T07:10:17.398Z,95282.97
2023-01-13T07:12:44.134Z,95280.00
2023-01-13T07:15:10.661Z,95278.56
2023-01-13T07:17:37.063Z,95266.31
2023-01-13T07:20:03.438Z,95295.13
2023-01-13T07:22:29.859Z,95284.75
2023-01-13T07:24:56.230Z,95288.22
2023-01-13T07:27:22.621Z,95306.22
2023-01-13T07:29:49.080Z,95303.09
2023-01-13T07:32:15.460Z,95288.88
2023-01-13T07:34:41.835Z,95304.25
2023-01-13T07:37:08.504Z,95296.22
2023-01-13T07:39:34.976Z,95295.22
2023-01-13T07:42:01.343Z,95299.09
2023-01-13T07:44:27.785Z,95291.84
2023-01-13T07:46:54.171Z,95298.41
2023-01-13T07:49:20.568Z,95298.75
2023-01-13T07:51:47.067Z,95308.13
2023-01-13T07:54:13.449Z,95308.03
2023-01-13T07:56:39.812Z,95310.91
2023-01-13T07:59:06.247Z,95319.63
2023-01-13T08:01:33.725Z,95323.94
2023-01-13T08:04:00.214Z,95321.00
2023-01-13T08:06:26.565Z,95307.38
2023-01-13T08:08:53.088Z,95297.69
2023-01-13T08:11:21.056Z,95300.56
2023-01-13T08:13:48.596Z,95320.94
2023-01-13T08:16:15.056Z,95317.56
2023-01-13T08:18:41.552Z,95312.09
2023-01-13T08:21:08.068Z,95314.97
2023-01-13T08:23:34.467Z,95318.00
2023-01-13T08:26:00.897Z,95304.72
2023-01-13T08:28:27.380Z,95320.03
2023-01-13T08:30:53.886Z,95319.91
2023-01-13T08:33:20.356Z,95317.47
2023-01-13T08:35:46.798Z,95332.53
2023-01-13T08:38:13.165Z,95330.72
2023-01-13T08:40:39.640Z,95338.06
2023-01-13T08:43:06.028Z,95342.66
2023-01-13T08:45:32.446Z,95344.09
2023-01-13T08:47:59.165Z,95351.53
2023-01-13T08:50:25.644Z,95348.03
2023-01-13T08:52:52.047Z,95357.34
2023-01-13T08:55:18.554Z,95369.00
2023-01-13T08:57:44.937Z,95368.44
2023-01-13T09:00:11.353Z,95373.84
2023-01-13T09:02:37.729Z,95377.06
2023-01-13T09:05:04.120Z,95379.50
2023-01-13T09:07:30.501Z,95373.50
2023-01-13T09:09:57.022Z,95383.47
2023-01-13T09:12:23.412Z,95397.75
2023-01-13T09:14:49.886Z,95396.25
2023-01-13T09:17:16.252Z,95395.38
2023-01-13T09:19:42.879Z,95393.13
2023-01-13T09:22:09.558Z,95388.97
2023-01-13T09:24:35.925Z,95389.31
2023-01-13T09:27:02.396Z,95393.97
2023-01-13T09:29:28.749Z,95397.94
2023-01-13T09:31:55.239Z,95392.69
2023-01-13T09:34:21.627Z,95377.94
2023-01-13T09:36:48.015Z,95390.50
2023-01-13T09:39:14.411Z,95393.63
2023-01-13T09:41:40.978Z,95391.22
2023-01-13T09:44:07.368Z,95392.75
2023-01-13T09:46:34.244Z,95410.28
2023-01-13T09:49:00.792Z,95414.44
2023-01-13T09:51:27.290Z,95418.75
2023-01-13T09:53:54.102Z,95410.97
2023-01-13T09:56:20.492Z,95418.16
2023-01-13T09:58:46.870Z,95408.78
2023-01-13T10:01:13.323Z,95391.34
2023-01-13T10:03:39.845Z,95387.28
2023-01-13T10:06:06.367Z,95394.66
2023-01-13T10:08:32.733Z,95392.47
2023-01-13T10:10:59.125Z,95391.84
2023-01-13T10:13:25.781Z,95394.16
2023-01-13T10:15:52.206Z,95396.66
2023-01-13T10:18:18.651Z,95397.03
2023-01-13T10:20:45.165Z,95401.84
2023-01-13T10:23:11.641Z,95400.69
2023-01-13T10:25:38.077Z,95396.81
2023-01-13T10:28:04.588Z,95382.06
2023-01-13T10:30:31.055Z,95379.25
2023-01-13T10:32:57.526Z,95379.81
2023-01-13T10:35:23.949Z,95389.69
2023-01-13T10:37:50.352Z,95393.19
2023-01-13T10:40:16.802Z,95389.50
2023-01-13T10:42:43.214Z,95387.06
2023-01-13T10:45:09.685Z,95385.84
2023-01-13T10:47:36.061Z,95388.38
2023-01-13T10:50:02.494Z,95387.50
2023-01-13T10:52:29.122Z,95381.88
2023-01-13T10:54:55.585Z,95366.88
2023-01-13T10:57:22.001Z,95356.09
2023-01-13T10:59:48.428Z,95362.41
2023-01-13T11:02:25.304Z,95359.16
2023-01-13T11:04:52.792Z,95356.16
2023-01-13T11:07:21.877Z,95349.25
2023-01-13T11:09:48.264Z,95348.94
2023-01-13T11:12:14.619Z,95346.00
2023-01-13T11:14:41.046Z,95355.44
2023-01-13T11:17:07.471Z,95357.72
2023-01-13T11:19:37.957Z,95348.41
2023-01-13T11:22:04.489Z,95347.03
2023-01-13T11:24:30.864Z,95351.94
2023-01-13T11:26:57.464Z,95351.88
2023-01-13T11:29:23.823Z,95360.81
2023-01-13T11:31:50.296Z,95346.78
2023-01-13T11:34:16.662Z,95343.38
2023-01-13T11:36:43.037Z,95366.53
2023-01-13T11:39:09.454Z,95352.66
2023-01-13T11:41:35.831Z,95338.44
2023-01-13T11:44:03.049Z,95349.81
2023-01-13T11:46:29.447Z,95364.97
2023-01-13T11:48:55.922Z,95367.09
2023-01-13T11:51:23.308Z,95363.41
2023-01-13T11:53:50.054Z,95351.44
2023-01-13T11:56:16.514Z,95348.81
2023-01-13T11:58:50.786Z,95354.78
2023-01-13T12:01:17.776Z,95349.66
2023-01-13T12:03:44.175Z,95362.47
2023-01-13T12:06:10.549Z,95374.78
2023-01-13T12:08:36.987Z,95386.13
2023-01-13T12:11:03.356Z,95382.00
2023-01-13T12:13:29.748Z,95373.75
2023-01-13T12:15:56.997Z,95375.28
2023-01-13T12:18:23.404Z,95362.91
2023-01-13T12:20:49.779Z,95378.94
2023-01-13T12:23:16.180Z,95374.53
2023-01-13T12:25:42.579Z,95354.38
2023-01-13T12:28:08.984Z,95370.22
2023-01-13T12:30:35.387Z,95366.56
2023-01-13T12:33:01.795Z,95355.19
2023-01-13T12:35:28.280Z,95373.88
2023-01-13T12:37:54.684Z,95398.97
2023-01-13T12:40:21.040Z,95386.25
2023-01-13T12:42:47.407Z,95392.31
2023-01-13T12:45:13.840Z,95389.56
2023-01-13T12:47:40.247Z,95385.97
2023-01-13T12:50:06.600Z,95389.78
2023-01-13T12:52:32.970Z,95376.00
2023-01-13T12:54:59.369Z,95382.50
2023-01-13T12:57:25.842Z,95372.66
2023-01-13T12:59:52.221Z,95368.59
2023-01-13T13:02:18.864Z,95368.47
2023-01-13T13:04:46.695Z,95370.81
2023-01-13T13:07:13.088Z,95362.69
2023-01-13T13:09:39.453Z,95347.97
2023-01-13T13:12:05.799Z,95358.59
2023-01-13T13:14:32.284Z,95368.31
2023-01-13T13:16:58.691Z,95397.75
2023-01-13T13:19:25.100Z,95389.16
2023-01-13T13:21:51.546Z,95399.53
2023-01-13T13:24:17.915Z,95377.56
2023-01-13T13:26:44.318Z,95375.19
2023-01-13T13:29:10.696Z,95389.09
2023-01-13T13:31:37.083Z,95378.28
2023-01-13T13:34:03.474Z,95380.59
2023-01-13T13:36:29.875Z,95405.22
2023-01-13T13:38:56.261Z,95389.09
2023-01-13T13:41:22.950Z,95369.69
2023-01-13T13:43:49.403Z,95375.69
2023-01-13T13:46:15.812Z,95383.13
2023-01-13T13:48:42.367Z,95373.09
2023-01-13T13:51:11.036Z,95400.56
2023-01-13T13:53:37.478Z,95394.09
2023-01-13T13:56:03.861Z,95387.00
2023-01-13T13:58:31.401Z,95387.75
2023-01-13T14:00:57.917Z,95400.81
2023-01-13T14:03:24.374Z,95396.81
2023-01-13T14:05:50.821Z,95402.31
2023-01-13T14:08:17.166Z,95398.06
2023-01-13T14:10:43.607Z,95408.28
2023-01-13T14:13:10.113Z,95415.16
2023-01-13T14:15:36.554Z,95410.78
2023-01-13T14:18:03.002Z,95398.06
2023-01-13T14:20:29.526Z,95383.03
2023-01-13T14:22:55.872Z,95380.44
2023-01-13T14:25:22.385Z,95393.13
2023-01-13T14:27:48.796Z,95387.66
2023-01-13T14:30:15.484Z,95394.69
2023-01-13T14:32:41.856Z,95389.19
2023-01-13T14:35:08.250Z,95388.44
2023-01-13T14:37:34.654Z,95383.41
2023-01-13T14:40:01.050Z,95406.59
2023-01-13T14:42:27.476Z,95406.56
2023-01-13T14:44:56.132Z,95416.84
2023-01-13T14:47:22.740Z,95415.63
2023-01-13T14:49:49.153Z,95419.34
2023-01-13T14:52:15.547Z,95436.44
2023-01-13T14:54:42.019Z,95440.25
2023-01-13T14:57:08.393Z,95432.84
2023-01-13T14:59:34.767Z,95438.25
2023-01-13T15:02:01.184Z,95435.78
2023-01-13T15:04:27.609Z,95441.16
2023-01-13T15:06:55.918Z,95450.75
2023-01-13T15:09:22.294Z,95462.34
2023-01-13T15:11:48.687Z,95458.34
2023-01-13T15:14:15.081Z,95461.41
2023-01-13T15:16:41.470Z,95465.16
2023-01-13T15:19:07.845Z,95466.69
2023-01-13T15:21:34.257Z,95469.09
2023-01-13T15:24:00.683Z,95474.00
2023-01-13T15:26:27.081Z,95473.06
2023-01-13T15:28:53.457Z,95487.69
2023-01-13T15:31:19.926Z,95486.53
2023-01-13T15:33:46.361Z,95494.00
2023-01-13T15:36:12.750Z,95494.25
2023-01-13T15:38:39.190Z,95492.19
2023-01-13T15:41:05.580Z,95498.28
2023-01-13T15:43:31.954Z,95514.66
2023-01-13T15:45:58.348Z,95515.38
2023-01-13T15:48:24.749Z,95523.13
2023-01-13T15:50:51.215Z,95518.34
2023-01-13T15:53:17.992Z,95519.41
2023-01-13T15:55:44.413Z,95513.88
2023-01-13T15:58:10.979Z,95527.09
2023-01-13T16:00:56.820Z,95532.09
2023-01-13T16:03:23.518Z,95522.63
2023-01-13T16:05:49.899Z,95531.75
2023-01-13T16:08:16.285Z,95524.91
2023-01-13T16:10:42.702Z,95523.91
2023-01-13T16:13:09.120Z,95534.75
2023-01-13T16:15:35.590Z,95519.59
2023-01-13T16:18:01.961Z,95524.72
2023-01-13T16:20:28.344Z,95527.84
2023-01-13T16:22:54.787Z,95533.00
2023-01-13T16:25:21.219Z,95544.69
2023-01-13T16:27:47.621Z,95546.91
2023-01-13T16:30:14.078Z,95553.22
2023-01-13T16:32:40.489Z,95542.94
2023-01-13T16:35:06.872Z,95539.59
2023-01-13T16:37:33.389Z,95544.78
2023-01-13T16:39:59.769Z,95548.41
2023-01-13T16:42:26.185Z,95567.88
2023-01-13T16:44:52.557Z,95564.16
2023-01-13T16:47:18.945Z,95577.16
2023-01-13T16:49:45.453Z,95573.50
2023-01-13T16:52:11.837Z,95575.78
2023-01-13T16:54:38.328Z,95587.50
2023-01-13T16:57:04.702Z,95613.47
2023-01-13T16:59:31.224Z,95603.63
2023-01-13T17:01:57.648Z,95615.97
2023-01-13T17:04:24.075Z,95621.50
2023-01-13T17:06:50.457Z,95629.88
2023-01-13T17:09:16.914Z,95623.03
2023-01-13T17:11:43.305Z,95632.59
2023-01-13T17:14:18.156Z,95626.63
2023-01-13T17:16:45.565Z,95631.06
2023-01-13T17:19:12.214Z,95627.72
2023-01-13T17:21:38.878Z,95629.59
2023-01-13T17:24:05.405Z,95649.28
2023-01-13T17:26:34.209Z,95637.91
2023-01-13T17:29:00.608Z,95644.28
2023-01-13T17:31:27.401Z,95669.41
2023-01-13T17:33:53.807Z,95648.16
2023-01-13T17:36:20.190Z,95646.22
2023-01-13T17:38:46.572Z,95652.25
2023-01-13T17:41:12.936Z,95646.63
2023-01-13T17:43:39.333Z,95677.13
2023-01-13T17:46:05.739Z,95649.19
2023-01-13T17:48:32.187Z,95643.72
2023-01-13T17:50:58.550Z,95644.63
2023-01-13T17:53:24.951Z,95657.44
2023-01-13T17:55:51.891Z,95641.53
2023-01-13T17:58:18.240Z,95643.38
2023-01-13T18:00:44.596Z,95671.00
2023-01-13T18:03:11.074Z,95644.91
2023-01-13T18:05:37.432Z,95637.84
2023-01-13T18:08:03.836Z,95651.84
2023-01-13T18:10:30.224Z,95673.88
2023-01-13T18:12:56.594Z,95656.97
2023-01-13T18:15:23.020Z,95669.84
2023-01-13T18:17:49.402Z,95684.75
2023-01-13T18:20:15.830Z,95685.44
2023-01-13T18:22:42.217Z,95705.66
2023-01-13T18:25:08.611Z,95701.91
2023-01-13T18:27:35.007Z,95712.38
2023-01-13T18:30:01.462Z,95704.19
2023-01-13T18:32:27.834Z,95702.69
2023-01-13T18:35:04.988Z,95708.09
2023-01-13T18:37:32.241Z,95696.72
2023-01-13T18:39:58.648Z,95695.19
2023-01-13T18:42:25.041Z,95689.66
2023-01-13T18:44:51.447Z,95702.56
2023-01-13T18:47:17.992Z,95701.50
2023-01-13T18:49:44.449Z,95693.00
2023-01-13T18:52:10.873Z,95707.97
2023-01-13T18:54:37.325Z,95706.16
2023-01-13T18:57:03.749Z,95724.41
2023-01-13T18:59:30.136Z,95708.00
2023-01-13T19:01:56.739Z,95711.00
2023-01-13T19:04:23.160Z,95722.88
2023-01-13T19:06:49.574Z,95720.97
2023-01-13T19:09:15.988Z,95726.94
2023-01-13T19:11:42.376Z,95743.50
2023-01-13T19:14:08.830Z,95739.53
2023-01-13T19:16:35.196Z,95738.06
2023-01-13T19:19:01.561Z,95736.34
2023-01-13T19:21:28.046Z,95743.16
2023-01-13T19:23:54.451Z,95742.88
2023-01-13T19:26:20.821Z,95749.25
2023-01-13T19:28:47.239Z,95740.84
2023-01-13T19:31:13.659Z,95733.22
2023-01-13T19:33:40.117Z,95743.56
2023-01-13T19:36:06.489Z,95756.16
2023-01-13T19:38:32.848Z,95754.72
2023-01-13T19:40:59.217Z,95782.50
2023-01-13T19:43:25.579Z,95787.69
2023-01-13T19:45:51.965Z,95781.84
2023-01-13T19:48:18.348Z,95797.94
2023-01-13T19:50:44.762Z,95796.50
2023-01-13T19:53:11.113Z,95797.25
2023-01-13T19:55:37.524Z,95792.41
2023-01-13T19:58:03.926Z,95789.16
2023-01-13T20:00:30.324Z,95789.47
2023-01-13T20:02:56.751Z,95794.84
2023-01-13T20:05:23.182Z,95801.84
2023-01-13T20:07:49.562Z,95803.66
2023-01-13T20:10:15.997Z,95807.00
2023-01-13T20:12:42.477Z,95799.78
2023-01-13T20:15:08.864Z,95779.50
2023-01-13T20:17:35.318Z,95779.25
2023-01-13T20:20:01.783Z,95778.81
2023-01-13T20:22:28.137Z,95780.25
2023-01-13T20:24:54.529Z,95787.47
2023-01-13T20:27:20.970Z,95778.59
2023-01-13T20:29:47.365Z,95772.16
2023-01-13T20:32:13.744Z,95774.91
2023-01-13T20:34:40.165Z,95787.03
2023-01-13T20:37:06.520Z,95790.50
2023-01-13T20:39:32.907Z,95793.81
2023-01-13T20:41:59.300Z,95794.56
2023-01-13T20:44:25.694Z,95798.16
2023-01-13T20:46:52.167Z,95812.19
2023-01-13T20:49:18.619Z,95800.44
2023-01-13T20:51:45.011Z,95793.81
2023-01-13T20:54:11.431Z,95798.13
2023-01-13T20:56:37.855Z,95811.16
2023-01-13T20:59:04.249Z,95807.69
2023-01-13T21:01:30.739Z,95801.13
2023-01-13T21:03:57.170Z,95806.53
2023-01-13T21:06:23.647Z,95814.84
2023-01-13T21:08:50.041Z,95806.81
2023-01-13T21:11:16.447Z,95816.41
2023-01-13T21:13:42.817Z,95812.78
2023-01-13T21:16:09.290Z,95810.25
2023-01-13T21:18:35.892Z,95803.91
2023-01-13T21:21:02.364Z,95805.53
2023-01-13T21:23:28.751Z,95800.81
2023-01-13T21:25:55.153Z,95810.06
2023-01-13T21:28:21.572Z,95799.03
2023-01-13T21:30:47.951Z,95798.88
2023-01-13T21:33:14.323Z,95805.19
2023-01-13T21:35:40.752Z,95801.06
2023-01-13T21:38:07.158Z,95794.25
2023-01-13T21:40:33.528Z,95795.09
2023-01-13T21:43:00.005Z,95794.63
2023-01-13T21:45:26.351Z,95794.00
2023-01-13T21:47:52.805Z,95786.13
2023-01-13T21:50:19.207Z,95781.31
2023-01-13T21:52:45.579Z,95784.00
2023-01-13T21:55:11.990Z,95795.25
2023-01-13T21:57:38.349Z,95798.50
2023-01-13T22:00:04.738Z,95796.78
2023-01-13T22:02:31.201Z,95813.03
2023-01-13T22:04:57.686Z,95802.50
2023-01-13T22:07:24.052Z,95810.63
2023-01-13T22:09:50.445Z,95808.09
2023-01-13T22:12:16.913Z,95812.25
2023-01-13T22:14:43.275Z,95806.91
2023-01-13T22:17:09.638Z,95813.56
2023-01-13T22:19:36.007Z,95824.41
2023-01-13T22:22:02.406Z,95824.81
2023-01-13T22:24:28.784Z,95828.31
2023-01-13T22:26:55.194Z,95829.28
2023-01-13T22:29:21.720Z,95825.44
2023-01-13T22:31:48.214Z,95811.00
2023-01-13T22:34:14.717Z,95817.03
2023-01-13T22:36:41.127Z,95812.25
2023-01-13T22:39:07.512Z,95814.97
2023-01-13T22:41:34.369Z,95815.91
2023-01-13T22:44:00.741Z,95818.56
2023-01-13T22:46:27.147Z,95813.22
2023-01-13T22:48:53.551Z,95813.88
2023-01-13T22:51:19.979Z,95814.66
2023-01-13T22:53:46.354Z,95817.94
2023-01-13T22:56:12.911Z,95812.44
2023-01-13T22:58:39.356Z,95807.06
2023-01-13T23:01:05.795Z,95809.31
2023-01-13T23:03:32.189Z,95808.56
2023-01-13T23:05:58.610Z,95805.16
2023-01-13T23:08:24.956Z,95802.09
2023-01-13T23:10:51.430Z,95802.03
2023-01-13T23:13:17.801Z,95805.53
2023-01-13T23:15:44.213Z,95805.78
2023-01-13T23:18:10.587Z,95800.47
2023-01-13T23:20:36.966Z,95803.06
2023-01-13T23:23:03.362Z,95798.91
2023-01-13T23:25:29.813Z,95794.41
2023-01-13T23:27:56.225Z,95787.22
2023-01-13T23:30:22.692Z,95780.97
2023-01-13T23:32:49.168Z,95793.66
2023-01-13T23:35:15.619Z,95788.06
2023-01-13T23:37:41.999Z,95784.41
2023-01-13T23:40:08.385Z,95788.19
2023-01-13T23:42:34.791Z,95791.91
2023-01-13T23:45:01.190Z,95788.34
2023-01-13T23:47:27.555Z,95787.19
2023-01-13T23:49:53.960Z,95778.34
2023-01-13T23:52:20.393Z,95777.69
2023-01-13T23:54:46.817Z,95785.69
2023-01-13T23:57:13.249Z,95781.22
2023-01-13T23:59:39.632Z,95773.03
